aviador You're here:

UKBB Decoded Metar

KIEV in UKRAINE
Report Time2017-09-23 18:00:00
UTC Time2017-09-23 18:23:52
Flight Rules vfr VFR
Wind010° at 8 kt
W.Decomp.*RWY 36: 8.0 kt HW 0.7 kt RCW
W.Rank010° ranks 1
Current wind is below 010° avg. (8.1)
Visibility9999 m
Phenomena:N/A
Clouds:N/A
Expected CloudBase > 1,200 ft AGL from Temp-Dew spread
CeilingNone
Temp12°C (ISA -2)
Dew Point09°C (82% RH)
AAT8.9°C
QNH1022 hPa
Density Alt-23 ft
Elevation390 ft
Report Wrong Elevation
Raw Report
UKBB 231800Z 01004MPS CAVOK 12/09 Q1022 R88/CLRD// NOSIG=

Extra information for UKBB:More info

Metar Taf Metar & Taf Last 4 Metars F.Rules Stats Wind Profile Meteogram Temp Stats Airport Information Weather charts Add Link Nearby VenuesMetar ALERT Operation Metar Decoded Social comments